createdAt,value
2024-05-09T00:00:31.571Z,10.07
2024-05-09T00:03:05.661Z,9.92
2024-05-09T00:05:32.937Z,10.34
2024-05-09T00:08:00.106Z,10.33
2024-05-09T00:10:35.253Z,10.00
2024-05-09T00:13:05.231Z,9.65
2024-05-09T00:15:32.436Z,9.98
2024-05-09T00:17:59.662Z,10.31
2024-05-09T00:20:35.277Z,10.48
2024-05-09T00:23:05.826Z,10.27
2024-05-09T00:25:32.947Z,10.03
2024-05-09T00:28:00.038Z,10.22
2024-05-09T00:30:33.619Z,9.87
2024-05-09T00:33:04.056Z,10.68
2024-05-09T00:35:31.808Z,10.94
2024-05-09T00:37:58.942Z,10.38
2024-05-09T00:40:35.502Z,10.30
2024-05-09T00:43:06.789Z,10.22
2024-05-09T00:45:33.992Z,10.24
2024-05-09T00:48:01.463Z,10.67
2024-05-09T00:50:35.687Z,10.11
2024-05-09T00:53:04.436Z,10.48
2024-05-09T00:55:31.560Z,10.39
2024-05-09T00:57:58.631Z,10.72
2024-05-09T01:00:34.641Z,10.64
2024-05-09T01:03:06.042Z,10.38
2024-05-09T01:05:33.319Z,10.57
2024-05-09T01:08:00.555Z,10.35
2024-05-09T01:10:33.802Z,10.19
2024-05-09T01:13:02.407Z,10.34
2024-05-09T01:15:29.482Z,10.53
2024-05-09T01:17:56.967Z,10.81
2024-05-09T01:20:36.373Z,10.21
2024-05-09T01:23:08.549Z,10.70
2024-05-09T01:25:35.951Z,10.62
2024-05-09T01:28:03.046Z,10.60
2024-05-09T01:30:34.867Z,10.34
2024-05-09T01:33:04.861Z,10.64
2024-05-09T01:35:32.597Z,10.73
2024-05-09T01:37:59.931Z,10.65
2024-05-09T01:40:36.319Z,10.16
2024-05-09T01:43:06.343Z,10.64
2024-05-09T01:45:33.491Z,10.57
2024-05-09T01:48:01.020Z,10.66
2024-05-09T01:50:37.750Z,10.41
2024-05-09T01:53:08.340Z,10.34
2024-05-09T01:55:35.563Z,10.54
2024-05-09T01:58:02.645Z,11.23
2024-05-09T02:00:37.348Z,11.18
2024-05-09T02:03:08.216Z,10.67
2024-05-09T02:05:35.672Z,11.15
2024-05-09T02:08:02.935Z,10.98
2024-05-09T02:10:32.787Z,10.93
2024-05-09T02:13:00.598Z,10.92
2024-05-09T02:15:27.694Z,10.85
2024-05-09T02:17:55.339Z,11.05
2024-05-09T02:20:30.685Z,10.97
2024-05-09T02:23:03.227Z,11.02
2024-05-09T02:25:30.404Z,11.08
2024-05-09T02:27:57.491Z,11.53
2024-05-09T02:30:31.163Z,11.54
2024-05-09T02:33:06.335Z,10.94
2024-05-09T02:35:33.715Z,11.68
2024-05-09T02:38:01.017Z,10.89
2024-05-09T02:40:36.262Z,11.34
2024-05-09T02:43:05.853Z,10.78
2024-05-09T02:45:33.344Z,10.97
2024-05-09T02:48:01.542Z,11.48
2024-05-09T02:50:34.768Z,11.46
2024-05-09T02:53:06.216Z,12.30
2024-05-09T02:55:33.419Z,11.81
2024-05-09T02:58:00.483Z,11.59
2024-05-09T03:00:36.632Z,11.52
2024-05-09T03:03:07.383Z,11.59
2024-05-09T03:05:34.866Z,12.64
2024-05-09T03:08:02.149Z,11.76
2024-05-09T03:10:35.322Z,11.95
2024-05-09T03:13:04.497Z,12.28
2024-05-09T03:15:31.572Z,12.76
2024-05-09T03:17:58.821Z,11.95
2024-05-09T03:20:32.556Z,12.10
2024-05-09T03:23:01.973Z,11.99
2024-05-09T03:25:29.203Z,11.87
2024-05-09T03:27:56.297Z,11.53
2024-05-09T03:30:30.946Z,11.32
2024-05-09T03:33:06.806Z,11.63
2024-05-09T03:35:34.015Z,11.76
2024-05-09T03:38:01.200Z,12.08
2024-05-09T03:40:30.869Z,12.11
2024-05-09T03:42:58.428Z,12.38
2024-05-09T03:45:25.535Z,11.92
2024-05-09T03:47:52.973Z,12.17
2024-05-09T03:50:26.329Z,12.50
2024-05-09T03:53:00.811Z,12.45
2024-05-09T03:55:28.097Z,12.31
2024-05-09T03:57:55.166Z,13.46
2024-05-09T04:00:30.929Z,13.94
2024-05-09T04:03:04.701Z,13.73
2024-05-09T04:05:32.499Z,13.40
2024-05-09T04:07:59.639Z,13.28
2024-05-09T04:10:32.366Z,13.19
2024-05-09T04:13:01.189Z,13.62
2024-05-09T04:15:28.375Z,14.21
2024-05-09T04:17:55.987Z,13.68
2024-05-09T04:20:33.800Z,14.07
2024-05-09T04:23:05.999Z,13.48
2024-05-09T04:25:33.420Z,13.43
2024-05-09T04:28:00.531Z,13.90
2024-05-09T04:30:36.411Z,13.81
2024-05-09T04:33:08.267Z,14.10
2024-05-09T04:35:37.305Z,14.01
2024-05-09T04:38:04.473Z,14.82
2024-05-09T04:40:35.090Z,14.39
2024-05-09T04:43:04.037Z,14.74
2024-05-09T04:45:31.213Z,14.40
2024-05-09T04:47:58.716Z,14.17
2024-05-09T04:50:35.186Z,14.12
2024-05-09T04:53:05.649Z,14.49
2024-05-09T04:55:33.330Z,14.52
2024-05-09T04:58:00.426Z,14.23
2024-05-09T05:00:35.301Z,13.70
2024-05-09T05:03:04.688Z,13.70
2024-05-09T05:05:31.936Z,13.88
2024-05-09T05:07:59.087Z,13.39
2024-05-09T05:10:33.736Z,14.45
2024-05-09T05:13:03.415Z,13.85
2024-05-09T05:15:30.513Z,13.19
2024-05-09T05:17:57.756Z,13.27
2024-05-09T05:20:32.554Z,13.75
2024-05-09T05:23:01.109Z,13.62
2024-05-09T05:25:28.339Z,13.30
2024-05-09T05:27:55.417Z,12.93
2024-05-09T05:30:28.752Z,13.30
2024-05-09T05:33:00.242Z,12.94
2024-05-09T05:35:27.639Z,13.09
2024-05-09T05:37:54.836Z,13.00
2024-05-09T05:40:28.612Z,13.14
2024-05-09T05:43:02.892Z,12.92
2024-05-09T05:45:30.015Z,12.50
2024-05-09T05:47:57.294Z,12.09
2024-05-09T05:50:32.286Z,12.62
2024-05-09T05:53:03.192Z,12.31
2024-05-09T05:55:30.382Z,12.00
2024-05-09T05:57:57.459Z,11.99
2024-05-09T06:00:30.100Z,12.35
2024-05-09T06:03:04.882Z,12.80
2024-05-09T06:05:32.471Z,13.08
2024-05-09T06:08:00.133Z,12.55
2024-05-09T06:10:37.014Z,12.57
2024-05-09T06:13:06.820Z,12.17
2024-05-09T06:15:34.054Z,12.38
2024-05-09T06:18:01.554Z,12.17
2024-05-09T06:20:35.640Z,12.39
2024-05-09T06:23:05.153Z,12.38
2024-05-09T06:25:32.495Z,13.21
2024-05-09T06:27:59.625Z,12.94
2024-05-09T06:30:35.298Z,12.91
2024-05-09T06:33:06.662Z,12.78
2024-05-09T06:35:34.188Z,12.94
2024-05-09T06:38:01.774Z,12.54
2024-05-09T06:40:36.883Z,12.57
2024-05-09T06:43:06.298Z,12.11
2024-05-09T06:45:33.425Z,13.11
2024-05-09T06:48:00.681Z,13.50
2024-05-09T06:50:31.334Z,13.14
2024-05-09T06:53:02.892Z,12.86
2024-05-09T06:55:29.976Z,13.09
2024-05-09T06:57:57.035Z,12.99
2024-05-09T07:00:30.770Z,12.94
2024-05-09T07:03:06.000Z,12.93
2024-05-09T07:05:33.522Z,13.14
2024-05-09T07:08:00.711Z,12.78
2024-05-09T07:10:33.119Z,12.72
2024-05-09T07:13:02.522Z,12.38
2024-05-09T07:15:29.616Z,12.76
2024-05-09T07:17:56.922Z,12.61
2024-05-09T07:20:32.306Z,12.06
2024-05-09T07:23:02.056Z,12.35
2024-05-09T07:25:29.431Z,12.89
2024-05-09T07:27:56.565Z,12.59
2024-05-09T07:30:30.586Z,12.49
2024-05-09T07:33:01.454Z,12.48
2024-05-09T07:35:29.340Z,11.87
2024-05-09T07:37:56.727Z,12.12
2024-05-09T07:40:32.801Z,11.88
2024-05-09T07:43:03.354Z,11.50
2024-05-09T07:45:47.729Z,11.87
2024-05-09T07:53:38.071Z,9.43
2024-05-09T07:56:04.664Z,9.41
2024-05-09T07:58:31.781Z,9.36
2024-05-09T08:00:58.937Z,9.81
2024-05-09T08:03:26.180Z,9.93
2024-05-09T08:05:53.456Z,9.99
2024-05-09T08:08:20.569Z,9.83
2024-05-09T08:10:47.694Z,10.15
2024-05-09T08:13:15.000Z,10.27
2024-05-09T08:15:42.156Z,10.27
2024-05-09T08:18:09.459Z,10.71
2024-05-09T08:20:36.573Z,10.65
2024-05-09T08:23:03.634Z,9.98
2024-05-09T08:25:30.712Z,10.54
2024-05-09T08:27:57.799Z,10.62
2024-05-09T08:30:32.557Z,10.48
2024-05-09T08:33:03.585Z,10.66
2024-05-09T08:35:30.727Z,10.85
2024-05-09T08:37:57.934Z,10.84
2024-05-09T08:40:32.853Z,10.98
2024-05-09T08:43:02.800Z,10.76
2024-05-09T08:45:30.248Z,10.97
2024-05-09T08:47:57.476Z,11.07
2024-05-09T08:50:32.251Z,11.09
2024-05-09T08:53:05.369Z,10.74
2024-05-09T08:55:32.546Z,11.16
2024-05-09T08:57:59.660Z,11.33
2024-05-09T09:00:35.549Z,11.77
2024-05-09T09:03:04.418Z,11.17
2024-05-09T09:05:31.971Z,11.92
2024-05-09T09:07:59.323Z,11.45
2024-05-09T09:10:31.925Z,11.51
2024-05-09T09:13:00.180Z,11.69
2024-05-09T09:15:27.343Z,11.45
2024-05-09T09:17:54.599Z,12.17
2024-05-09T09:20:28.737Z,11.55
2024-05-09T09:23:01.018Z,12.13
2024-05-09T09:25:28.098Z,11.33
2024-05-09T09:27:55.275Z,11.27
2024-05-09T09:30:34.501Z,11.52
2024-05-09T09:33:04.896Z,11.38
2024-05-09T09:35:32.283Z,11.69
2024-05-09T09:37:59.389Z,12.42
2024-05-09T09:40:32.110Z,11.26
2024-05-09T09:43:01.092Z,11.91
2024-05-09T09:45:28.247Z,11.96
2024-05-09T09:47:55.394Z,12.52
2024-05-09T09:50:27.951Z,12.65
2024-05-09T09:53:01.022Z,12.39
2024-05-09T09:55:28.140Z,12.52
2024-05-09T09:57:55.296Z,11.44
2024-05-09T10:00:27.288Z,12.74
2024-05-09T10:02:59.619Z,12.58
2024-05-09T10:05:27.056Z,12.48
2024-05-09T10:07:54.462Z,12.81
2024-05-09T10:10:29.861Z,13.45
2024-05-09T10:12:59.661Z,12.91
2024-05-09T10:15:26.815Z,12.78
2024-05-09T10:17:53.980Z,12.92
2024-05-09T10:20:24.919Z,12.86
2024-05-09T10:22:55.110Z,12.84
2024-05-09T10:25:22.371Z,13.03
2024-05-09T10:27:49.637Z,13.06
2024-05-09T10:30:25.414Z,12.42
2024-05-09T10:32:56.625Z,12.71
2024-05-09T10:35:23.830Z,12.46
2024-05-09T10:37:50.910Z,11.72
2024-05-09T10:40:25.784Z,12.45
2024-05-09T10:42:56.406Z,12.27
2024-05-09T10:45:23.606Z,12.51
2024-05-09T10:47:50.840Z,12.28
2024-05-09T10:50:25.336Z,11.72
2024-05-09T10:52:55.872Z,11.92
2024-05-09T10:55:23.060Z,12.01
2024-05-09T10:57:50.197Z,11.48
2024-05-09T11:00:27.078Z,12.45
2024-05-09T11:02:57.610Z,12.62
2024-05-09T11:05:24.811Z,12.04
2024-05-09T11:07:51.951Z,12.00
2024-05-09T11:10:27.254Z,11.68
2024-05-09T11:12:58.944Z,11.09
2024-05-09T11:15:26.077Z,12.26
2024-05-09T11:17:53.325Z,12.13
2024-05-09T11:20:26.910Z,12.14
2024-05-09T11:22:56.886Z,10.63
2024-05-09T11:25:23.986Z,11.23
2024-05-09T11:27:51.172Z,9.66
2024-05-09T11:30:26.656Z,11.05
2024-05-09T11:32:58.934Z,11.37
2024-05-09T11:35:26.118Z,10.96
2024-05-09T11:37:53.221Z,10.63
2024-05-09T11:40:25.493Z,10.92
2024-05-09T11:42:55.764Z,10.58
2024-05-09T11:45:22.865Z,10.83
2024-05-09T11:47:50.083Z,10.40
2024-05-09T11:50:26.758Z,9.98
2024-05-09T11:52:57.313Z,10.17
2024-05-09T11:55:27.695Z,10.75
2024-05-09T11:57:55.672Z,10.70
2024-05-09T12:00:33.657Z,10.89
2024-05-09T12:03:04.258Z,10.82
2024-05-09T12:05:31.558Z,10.53
2024-05-09T12:07:58.707Z,10.36
2024-05-09T12:10:32.719Z,9.79
2024-05-09T12:13:03.155Z,9.82
2024-05-09T12:15:31.404Z,10.19
2024-05-09T12:18:01.241Z,9.57
2024-05-09T12:20:36.445Z,8.70
2024-05-09T12:23:06.368Z,8.29
2024-05-09T12:25:33.513Z,9.24
2024-05-09T12:28:01.056Z,9.36
2024-05-09T12:30:35.868Z,9.80
2024-05-09T12:33:06.476Z,9.52
2024-05-09T12:35:33.697Z,8.57
2024-05-09T12:38:00.767Z,7.16
2024-05-09T12:40:35.518Z,5.99
2024-05-09T12:43:05.326Z,6.44
2024-05-09T12:45:32.638Z,5.63
2024-05-09T12:47:59.944Z,4.64
2024-05-09T12:50:32.506Z,4.42
2024-05-09T12:53:01.717Z,4.45
2024-05-09T12:55:33.872Z,4.44
2024-05-09T12:58:08.123Z,4.22
2024-05-09T13:00:35.757Z,4.34
2024-05-09T13:03:03.281Z,4.04
2024-05-09T13:05:30.631Z,3.95
2024-05-09T13:07:57.992Z,3.85
2024-05-09T13:10:31.955Z,4.23
2024-05-09T13:13:01.207Z,4.22
2024-05-09T13:15:28.910Z,3.94
2024-05-09T13:17:58.271Z,3.97
2024-05-09T13:20:32.818Z,4.43
2024-05-09T13:23:02.467Z,4.29
2024-05-09T13:25:29.655Z,3.91
2024-05-09T13:27:56.873Z,4.09
2024-05-09T13:30:29.996Z,3.96
2024-05-09T13:33:06.088Z,3.92
2024-05-09T13:35:33.825Z,4.04
2024-05-09T13:38:00.919Z,4.00
2024-05-09T13:40:33.388Z,4.13
2024-05-09T13:43:03.125Z,4.35
2024-05-09T13:45:30.465Z,3.98
2024-05-09T13:47:57.813Z,3.82
2024-05-09T13:50:33.189Z,3.58
2024-05-09T13:53:03.183Z,3.71
2024-05-09T13:55:30.342Z,3.86
2024-05-09T13:57:57.442Z,3.91
2024-05-09T14:02:54.855Z,3.75
2024-05-09T14:05:22.205Z,3.67
2024-05-09T14:07:49.346Z,3.84
2024-05-09T14:10:23.209Z,3.38
2024-05-09T14:12:55.824Z,3.81
2024-05-09T14:15:22.887Z,3.85
2024-05-09T14:17:49.984Z,3.89
2024-05-09T14:20:27.961Z,3.52
2024-05-09T14:22:58.425Z,3.75
2024-05-09T14:25:25.484Z,3.80
2024-05-09T14:27:52.578Z,3.99
2024-05-09T14:30:26.503Z,3.99
2024-05-09T14:33:01.631Z,4.12
2024-05-09T14:35:28.906Z,3.49
2024-05-09T14:37:55.988Z,4.20
2024-05-09T14:40:35.911Z,4.23
2024-05-09T14:43:08.391Z,3.96
2024-05-09T14:45:35.843Z,3.86
2024-05-09T14:48:03.732Z,4.03
2024-05-09T14:50:36.656Z,3.93
2024-05-09T14:53:06.838Z,3.74
2024-05-09T14:55:34.525Z,4.06
2024-05-09T14:58:01.650Z,3.97
2024-05-09T15:00:33.428Z,3.91
2024-05-09T15:03:03.335Z,4.03
2024-05-09T15:05:30.745Z,3.95
2024-05-09T15:07:57.881Z,3.86
2024-05-09T15:10:33.744Z,3.99
2024-05-09T15:13:03.247Z,3.92
2024-05-09T15:15:30.593Z,3.73
2024-05-09T15:17:57.873Z,3.77
2024-05-09T15:20:33.002Z,3.80
2024-05-09T15:23:03.190Z,4.09
2024-05-09T15:25:30.640Z,4.09
2024-05-09T15:28:14.579Z,3.90
2024-05-09T15:30:45.472Z,3.71
2024-05-09T15:33:13.880Z,4.07
2024-05-09T15:35:41.037Z,3.44
2024-05-09T15:38:08.138Z,3.62
2024-05-09T15:40:39.590Z,4.01
2024-05-09T15:43:09.298Z,3.72
2024-05-09T15:45:37.869Z,3.93
2024-05-09T15:48:05.075Z,3.86
2024-05-09T15:50:37.955Z,3.62
2024-05-09T15:53:08.715Z,3.66
2024-05-09T15:55:36.586Z,3.95
2024-05-09T15:58:04.372Z,3.90
2024-05-09T16:00:37.942Z,3.86
2024-05-09T16:03:08.793Z,3.95
2024-05-09T16:05:36.300Z,3.60
2024-05-09T16:08:03.478Z,3.59
2024-05-09T16:10:33.118Z,3.71
2024-05-09T16:13:02.294Z,3.60
2024-05-09T16:15:30.289Z,3.59
2024-05-09T16:17:57.624Z,3.74
2024-05-09T16:20:34.427Z,3.69
2024-05-09T16:23:06.887Z,3.77
2024-05-09T16:25:34.036Z,3.87
2024-05-09T16:28:01.315Z,3.99
2024-05-09T16:30:34.497Z,4.44
2024-05-09T16:33:03.517Z,3.72
2024-05-09T16:35:31.416Z,3.67
2024-05-09T16:37:58.627Z,3.86
2024-05-09T16:40:34.512Z,3.45
2024-05-09T16:43:06.528Z,3.34
2024-05-09T16:45:34.077Z,3.60
2024-05-09T16:48:01.633Z,3.55
2024-05-09T16:50:32.778Z,3.38
2024-05-09T16:53:01.703Z,3.08
2024-05-09T16:55:29.049Z,3.23
2024-05-09T16:57:56.444Z,3.46
2024-05-09T17:00:34.916Z,3.18
2024-05-09T17:03:08.109Z,3.31
2024-05-09T17:05:35.973Z,3.37
2024-05-09T17:08:03.543Z,3.36
2024-05-09T17:10:33.750Z,3.39
2024-05-09T17:13:02.548Z,3.43
2024-05-09T17:15:30.146Z,3.43
2024-05-09T17:17:57.297Z,3.32
2024-05-09T17:20:31.805Z,3.32
2024-05-09T17:23:02.219Z,3.62
2024-05-09T17:25:29.542Z,3.47
2024-05-09T17:27:56.878Z,4.28
2024-05-09T17:30:29.392Z,6.64
2024-05-09T17:33:02.587Z,6.71
2024-05-09T17:35:29.800Z,16.03
2024-05-09T17:37:56.919Z,8.96
2024-05-09T17:40:31.408Z,7.06
2024-05-09T17:43:03.212Z,7.00
2024-05-09T17:45:30.857Z,6.05
2024-05-09T17:47:58.511Z,4.69
2024-05-09T17:50:31.684Z,4.86
2024-05-09T17:53:02.948Z,4.08
2024-05-09T17:55:30.362Z,3.52
2024-05-09T17:57:57.908Z,3.46
2024-05-09T18:00:36.216Z,3.59
2024-05-09T18:03:07.284Z,4.27
2024-05-09T18:05:34.782Z,3.60
2024-05-09T18:08:02.144Z,3.49
2024-05-09T18:10:35.559Z,3.71
2024-05-09T18:13:06.346Z,3.68
2024-05-09T18:15:34.126Z,3.57
2024-05-09T18:18:01.585Z,3.61
2024-05-09T18:20:37.775Z,14.07
2024-05-09T18:23:10.520Z,28.99
2024-05-09T18:25:37.676Z,11.71
2024-05-09T18:28:04.944Z,6.18
2024-05-09T18:30:35.333Z,5.77
2024-05-09T18:33:04.574Z,3.89
2024-05-09T18:35:32.688Z,3.86
2024-05-09T18:37:59.762Z,3.75
2024-05-09T18:40:33.429Z,3.64
2024-05-09T18:43:03.740Z,3.76
2024-05-09T18:45:31.063Z,3.65
2024-05-09T18:47:58.434Z,3.82
2024-05-09T18:50:33.697Z,3.65
2024-05-09T18:53:04.126Z,3.96
2024-05-09T18:55:31.228Z,3.60
2024-05-09T18:57:58.377Z,4.10
2024-05-09T19:00:33.797Z,4.18
2024-05-09T19:03:05.488Z,4.13
2024-05-09T19:05:33.807Z,4.25
2024-05-09T19:08:01.160Z,3.96
2024-05-09T19:10:33.826Z,3.76
2024-05-09T19:13:05.755Z,3.97
2024-05-09T19:15:36.591Z,3.54
2024-05-09T19:18:03.769Z,3.85
2024-05-09T19:20:34.524Z,3.97
2024-05-09T19:23:03.277Z,5.38
2024-05-09T19:25:30.777Z,5.28
2024-05-09T19:27:58.199Z,5.98
2024-05-09T19:30:34.420Z,4.76
2024-05-09T19:33:07.085Z,4.33
2024-05-09T19:35:34.314Z,3.97
2024-05-09T19:38:01.417Z,4.36
2024-05-09T19:40:31.947Z,4.12
2024-05-09T19:43:01.123Z,4.26
2024-05-09T19:45:28.415Z,4.10
2024-05-09T19:47:55.607Z,4.29
2024-05-09T19:50:31.029Z,4.38
2024-05-09T19:53:04.481Z,4.43
2024-05-09T19:55:31.600Z,4.19
2024-05-09T19:57:59.897Z,3.95
2024-05-09T20:00:34.689Z,4.10
2024-05-09T20:03:03.405Z,4.15
2024-05-09T20:05:31.197Z,4.03
2024-05-09T20:07:58.506Z,4.12
2024-05-09T20:10:31.441Z,4.39
2024-05-09T20:13:00.694Z,5.01
2024-05-09T20:15:27.899Z,4.75
2024-05-09T20:17:55.291Z,4.36
2024-05-09T20:20:32.611Z,4.45
2024-05-09T20:23:04.917Z,4.46
2024-05-09T20:25:32.024Z,4.40
2024-05-09T20:27:59.146Z,4.54
2024-05-09T20:30:31.941Z,4.55
2024-05-09T20:33:00.958Z,4.73
2024-05-09T20:35:28.480Z,4.27
2024-05-09T20:37:55.548Z,4.56
2024-05-09T20:40:29.135Z,4.47
2024-05-09T20:43:00.641Z,4.55
2024-05-09T20:45:27.751Z,4.37
2024-05-09T20:47:55.077Z,4.35
2024-05-09T20:50:29.213Z,4.60
2024-05-09T20:53:03.976Z,4.70
2024-05-09T20:55:31.178Z,4.57
2024-05-09T20:57:58.409Z,4.34
2024-05-09T21:00:34.534Z,4.31
2024-05-09T21:03:07.231Z,4.42
2024-05-09T21:05:35.168Z,4.49
2024-05-09T21:08:03.050Z,4.13
2024-05-09T21:10:33.221Z,4.35
2024-05-09T21:13:02.601Z,4.55
2024-05-09T21:15:30.608Z,4.39
2024-05-09T21:17:57.836Z,4.24
2024-05-09T21:20:30.888Z,4.36
2024-05-09T21:22:59.588Z,4.51
2024-05-09T21:25:26.746Z,4.61
2024-05-09T21:27:54.087Z,4.56
2024-05-09T21:32:51.412Z,4.51
2024-05-09T21:35:18.587Z,4.51
2024-05-09T21:37:45.700Z,4.44
2024-05-09T21:40:17.023Z,4.48
2024-05-09T21:42:51.228Z,4.55
2024-05-09T21:45:18.304Z,4.49
2024-05-09T21:47:45.486Z,4.54
2024-05-09T21:50:22.142Z,4.63
2024-05-09T21:52:50.605Z,4.58
2024-05-09T21:55:17.719Z,4.85
2024-05-09T21:57:44.842Z,4.45
2024-05-09T22:00:17.562Z,4.50
2024-05-09T22:02:51.660Z,4.87
2024-05-09T22:05:18.878Z,4.72
2024-05-09T22:07:46.017Z,4.30
2024-05-09T22:10:22.656Z,4.14
2024-05-09T22:12:53.951Z,4.10
2024-05-09T22:15:21.055Z,4.35
2024-05-09T22:17:48.284Z,4.54
2024-05-09T22:20:22.202Z,4.51
2024-05-09T22:22:55.998Z,4.37
2024-05-09T22:25:23.135Z,4.73
2024-05-09T22:27:50.232Z,4.44
2024-05-09T22:30:23.835Z,4.63
2024-05-09T22:32:55.095Z,4.51
2024-05-09T22:35:22.270Z,4.78
2024-05-09T22:37:49.358Z,4.70
2024-05-09T22:40:24.364Z,4.64
2024-05-09T22:43:00.213Z,4.70
2024-05-09T22:45:27.326Z,4.89
2024-05-09T22:47:54.577Z,5.04
2024-05-09T22:50:26.819Z,5.16
2024-05-09T22:52:57.862Z,5.05
2024-05-09T22:55:24.969Z,5.05
2024-05-09T22:57:52.115Z,5.10
2024-05-09T23:00:26.280Z,4.98
2024-05-09T23:02:58.312Z,5.09
2024-05-09T23:05:25.538Z,5.28
2024-05-09T23:07:52.698Z,4.91
2024-05-09T23:10:27.463Z,5.05
2024-05-09T23:12:59.468Z,5.01
2024-05-09T23:15:26.585Z,4.96
2024-05-09T23:17:53.863Z,4.89
2024-05-09T23:20:30.048Z,4.75
2024-05-09T23:23:03.908Z,4.87
2024-05-09T23:42:17.093Z,4.87
2024-05-09T23:44:44.192Z,4.66
2024-05-09T23:47:11.326Z,4.80
2024-05-09T23:49:38.501Z,4.72
2024-05-09T23:52:05.614Z,4.55
2024-05-09T23:54:32.743Z,4.68
2024-05-09T23:56:59.856Z,4.69
2024-05-09T23:59:26.897Z,4.46
